sensor_id;sensor_type;location;lat;lon;timestamp;P1;durP1;ratioP1;P2;durP2;ratioP2
26488;SDS011;14169;43.684;10.484;2023-04-25T00:02:11;13.88;;;2.92;;
26488;SDS011;14169;43.684;10.484;2023-04-25T00:04:36;17.75;;;2.60;;
26488;SDS011;14169;43.684;10.484;2023-04-25T00:07:02;12.95;;;3.17;;
26488;SDS011;14169;43.684;10.484;2023-04-25T00:09:28;14.13;;;3.75;;
26488;SDS011;14169;43.684;10.484;2023-04-25T00:11:54;20.73;;;3.67;;
26488;SDS011;14169;43.684;10.484;2023-04-25T00:14:19;12.95;;;3.17;;
26488;SDS011;14169;43.684;10.484;2023-04-25T00:16:45;17.38;;;4.13;;
26488;SDS011;14169;43.684;10.484;2023-04-25T00:19:10;17.17;;;4.30;;
26488;SDS011;14169;43.684;10.484;2023-04-25T00:21:36;21.38;;;3.75;;
26488;SDS011;14169;43.684;10.484;2023-04-25T00:24:05;16.88;;;4.30;;
26488;SDS011;14169;43.684;10.484;2023-04-25T00:26:34;13.07;;;3.70;;
26488;SDS011;14169;43.684;10.484;2023-04-25T00:29:00;14.35;;;4.63;;
26488;SDS011;14169;43.684;10.484;2023-04-25T00:31:26;13.07;;;4.15;;
26488;SDS011;14169;43.684;10.484;2023-04-25T00:33:51;22.38;;;4.75;;
26488;SDS011;14169;43.684;10.484;2023-04-25T00:36:18;17.77;;;3.75;;
26488;SDS011;14169;43.684;10.484;2023-04-25T00:38:43;19.75;;;4.13;;
26488;SDS011;14169;43.684;10.484;2023-04-25T00:41:09;17.65;;;3.58;;
26488;SDS011;14169;43.684;10.484;2023-04-25T00:43:36;17.70;;;3.88;;
26488;SDS011;14169;43.684;10.484;2023-04-25T00:46:02;14.82;;;3.58;;
26488;SDS011;14169;43.684;10.484;2023-04-25T00:48:28;24.48;;;3.60;;
26488;SDS011;14169;43.684;10.484;2023-04-25T00:50:54;12.32;;;3.30;;
26488;SDS011;14169;43.684;10.484;2023-04-25T00:53:21;17.50;;;3.25;;
26488;SDS011;14169;43.684;10.484;2023-04-25T00:55:48;10.50;;;2.65;;
26488;SDS011;14169;43.684;10.484;2023-04-25T00:58:16;13.65;;;2.38;;
26488;SDS011;14169;43.684;10.484;2023-04-25T01:00:45;9.48;;;2.78;;
26488;SDS011;14169;43.684;10.484;2023-04-25T01:03:12;17.95;;;3.88;;
26488;SDS011;14169;43.684;10.484;2023-04-25T01:05:42;15.60;;;3.17;;
26488;SDS011;14169;43.684;10.484;2023-04-25T01:08:08;17.17;;;3.53;;
26488;SDS011;14169;43.684;10.484;2023-04-25T01:10:35;12.68;;;3.70;;
26488;SDS011;14169;43.684;10.484;2023-04-25T01:13:00;11.07;;;3.85;;
26488;SDS011;14169;43.684;10.484;2023-04-25T01:15:26;12.93;;;3.08;;
26488;SDS011;14169;43.684;10.484;2023-04-25T01:17:51;14.43;;;3.03;;
26488;SDS011;14169;43.684;10.484;2023-04-25T01:20:18;17.45;;;2.88;;
26488;SDS011;14169;43.684;10.484;2023-04-25T01:22:47;16.02;;;2.72;;
26488;SDS011;14169;43.684;10.484;2023-04-25T01:25:12;13.23;;;2.13;;
26488;SDS011;14169;43.684;10.484;2023-04-25T01:27:38;11.02;;;2.67;;
26488;SDS011;14169;43.684;10.484;2023-04-25T01:30:04;18.08;;;2.85;;
26488;SDS011;14169;43.684;10.484;2023-04-25T01:32:30;19.70;;;3.95;;
26488;SDS011;14169;43.684;10.484;2023-04-25T01:35:06;10.27;;;3.38;;
26488;SDS011;14169;43.684;10.484;2023-04-25T01:37:38;16.23;;;2.85;;
26488;SDS011;14169;43.684;10.484;2023-04-25T01:40:05;24.88;;;2.88;;
26488;SDS011;14169;43.684;10.484;2023-04-25T01:42:32;11.25;;;2.20;;
26488;SDS011;14169;43.684;10.484;2023-04-25T01:44:59;15.45;;;3.53;;
26488;SDS011;14169;43.684;10.484;2023-04-25T01:47:24;13.55;;;2.35;;
26488;SDS011;14169;43.684;10.484;2023-04-25T01:49:50;18.23;;;3.20;;
26488;SDS011;14169;43.684;10.484;2023-04-25T01:52:16;24.33;;;4.03;;
26488;SDS011;14169;43.684;10.484;2023-04-25T01:54:41;11.15;;;2.40;;
26488;SDS011;14169;43.684;10.484;2023-04-25T01:57:09;14.32;;;3.50;;
26488;SDS011;14169;43.684;10.484;2023-04-25T01:59:36;11.90;;;2.63;;
26488;SDS011;14169;43.684;10.484;2023-04-25T02:02:02;11.07;;;2.53;;
26488;SDS011;14169;43.684;10.484;2023-04-25T02:04:29;10.57;;;2.20;;
26488;SDS011;14169;43.684;10.484;2023-04-25T02:06:54;9.50;;;3.72;;
26488;SDS011;14169;43.684;10.484;2023-04-25T02:09:20;9.75;;;2.58;;
26488;SDS011;14169;43.684;10.484;2023-04-25T02:11:45;15.50;;;2.58;;
26488;SDS011;14169;43.684;10.484;2023-04-25T02:14:11;14.55;;;2.90;;
26488;SDS011;14169;43.684;10.484;2023-04-25T02:16:36;14.15;;;2.88;;
26488;SDS011;14169;43.684;10.484;2023-04-25T02:19:02;13.25;;;3.03;;
26488;SDS011;14169;43.684;10.484;2023-04-25T02:21:27;9.02;;;2.08;;
26488;SDS011;14169;43.684;10.484;2023-04-25T02:23:53;11.57;;;2.75;;
26488;SDS011;14169;43.684;10.484;2023-04-25T02:26:18;14.20;;;3.00;;
26488;SDS011;14169;43.684;10.484;2023-04-25T02:28:44;10.50;;;2.13;;
26488;SDS011;14169;43.684;10.484;2023-04-25T02:31:10;13.23;;;2.30;;
26488;SDS011;14169;43.684;10.484;2023-04-25T02:33:35;10.05;;;2.10;;
26488;SDS011;14169;43.684;10.484;2023-04-25T02:36:00;17.38;;;3.00;;
26488;SDS011;14169;43.684;10.484;2023-04-25T02:38:26;16.92;;;2.45;;
26488;SDS011;14169;43.684;10.484;2023-04-25T02:40:51;9.95;;;2.38;;
26488;SDS011;14169;43.684;10.484;2023-04-25T02:43:16;10.68;;;2.35;;
26488;SDS011;14169;43.684;10.484;2023-04-25T02:45:42;9.98;;;2.50;;
26488;SDS011;14169;43.684;10.484;2023-04-25T02:48:07;10.98;;;2.15;;
26488;SDS011;14169;43.684;10.484;2023-04-25T02:50:33;8.55;;;2.17;;
26488;SDS011;14169;43.684;10.484;2023-04-25T02:52:58;16.27;;;2.40;;
26488;SDS011;14169;43.684;10.484;2023-04-25T02:55:23;11.55;;;3.03;;
26488;SDS011;14169;43.684;10.484;2023-04-25T02:57:49;14.50;;;2.30;;
26488;SDS011;14169;43.684;10.484;2023-04-25T03:00:14;5.65;;;1.88;;
26488;SDS011;14169;43.684;10.484;2023-04-25T03:02:40;7.57;;;2.13;;
26488;SDS011;14169;43.684;10.484;2023-04-25T03:05:05;12.63;;;2.33;;
26488;SDS011;14169;43.684;10.484;2023-04-25T03:07:32;14.32;;;2.97;;
26488;SDS011;14169;43.684;10.484;2023-04-25T03:09:57;12.15;;;2.75;;
26488;SDS011;14169;43.684;10.484;2023-04-25T03:12:22;10.57;;;2.75;;
26488;SDS011;14169;43.684;10.484;2023-04-25T03:14:48;10.70;;;3.22;;
26488;SDS011;14169;43.684;10.484;2023-04-25T03:17:13;13.77;;;2.88;;
26488;SDS011;14169;43.684;10.484;2023-04-25T03:19:39;9.35;;;2.42;;
26488;SDS011;14169;43.684;10.484;2023-04-25T03:22:04;12.13;;;1.52;;
26488;SDS011;14169;43.684;10.484;2023-04-25T03:24:29;8.45;;;2.55;;
26488;SDS011;14169;43.684;10.484;2023-04-25T03:26:55;12.18;;;2.35;;
26488;SDS011;14169;43.684;10.484;2023-04-25T03:29:20;13.45;;;2.53;;
26488;SDS011;14169;43.684;10.484;2023-04-25T03:31:49;14.38;;;2.03;;
26488;SDS011;14169;43.684;10.484;2023-04-25T03:34:15;11.50;;;2.88;;
26488;SDS011;14169;43.684;10.484;2023-04-25T03:36:40;7.03;;;1.90;;
26488;SDS011;14169;43.684;10.484;2023-04-25T03:39:05;8.65;;;2.03;;
26488;SDS011;14169;43.684;10.484;2023-04-25T03:41:31;10.50;;;2.25;;
26488;SDS011;14169;43.684;10.484;2023-04-25T03:43:56;13.20;;;2.75;;
26488;SDS011;14169;43.684;10.484;2023-04-25T03:46:22;17.83;;;2.67;;
26488;SDS011;14169;43.684;10.484;2023-04-25T03:48:47;11.63;;;1.90;;
26488;SDS011;14169;43.684;10.484;2023-04-25T03:51:12;15.45;;;3.08;;
26488;SDS011;14169;43.684;10.484;2023-04-25T03:53:38;12.35;;;2.05;;
26488;SDS011;14169;43.684;10.484;2023-04-25T03:56:03;9.38;;;2.75;;
26488;SDS011;14169;43.684;10.484;2023-04-25T03:58:29;12.10;;;2.47;;
26488;SDS011;14169;43.684;10.484;2023-04-25T04:00:54;12.55;;;2.15;;
26488;SDS011;14169;43.684;10.484;2023-04-25T04:03:20;16.33;;;2.92;;
26488;SDS011;14169;43.684;10.484;2023-04-25T04:05:45;12.60;;;2.35;;
26488;SDS011;14169;43.684;10.484;2023-04-25T04:08:11;9.93;;;2.30;;
26488;SDS011;14169;43.684;10.484;2023-04-25T04:10:37;9.32;;;2.47;;
26488;SDS011;14169;43.684;10.484;2023-04-25T04:13:02;9.40;;;3.00;;
26488;SDS011;14169;43.684;10.484;2023-04-25T04:15:27;23.88;;;4.00;;
26488;SDS011;14169;43.684;10.484;2023-04-25T04:17:53;9.20;;;2.25;;
26488;SDS011;14169;43.684;10.484;2023-04-25T04:20:19;15.80;;;3.53;;
26488;SDS011;14169;43.684;10.484;2023-04-25T04:22:45;16.67;;;3.50;;
26488;SDS011;14169;43.684;10.484;2023-04-25T04:25:10;8.45;;;2.35;;
26488;SDS011;14169;43.684;10.484;2023-04-25T04:27:36;14.13;;;2.90;;
26488;SDS011;14169;43.684;10.484;2023-04-25T04:30:02;13.27;;;3.63;;
26488;SDS011;14169;43.684;10.484;2023-04-25T04:32:28;17.52;;;4.20;;
26488;SDS011;14169;43.684;10.484;2023-04-25T04:34:55;16.08;;;3.45;;
26488;SDS011;14169;43.684;10.484;2023-04-25T04:37:21;15.45;;;2.90;;
26488;SDS011;14169;43.684;10.484;2023-04-25T04:39:47;12.73;;;3.13;;
26488;SDS011;14169;43.684;10.484;2023-04-25T04:42:12;16.95;;;3.70;;
26488;SDS011;14169;43.684;10.484;2023-04-25T04:44:38;17.38;;;3.72;;
26488;SDS011;14169;43.684;10.484;2023-04-25T04:47:04;17.55;;;2.70;;
26488;SDS011;14169;43.684;10.484;2023-04-25T04:49:31;13.13;;;2.65;;
26488;SDS011;14169;43.684;10.484;2023-04-25T04:51:57;14.88;;;3.40;;
26488;SDS011;14169;43.684;10.484;2023-04-25T04:54:22;12.60;;;3.00;;
26488;SDS011;14169;43.684;10.484;2023-04-25T04:56:48;12.70;;;3.13;;
26488;SDS011;14169;43.684;10.484;2023-04-25T04:59:13;7.15;;;2.17;;
26488;SDS011;14169;43.684;10.484;2023-04-25T05:01:38;13.15;;;3.05;;
26488;SDS011;14169;43.684;10.484;2023-04-25T05:04:04;21.30;;;4.35;;
26488;SDS011;14169;43.684;10.484;2023-04-25T05:06:30;27.23;;;5.00;;
26488;SDS011;14169;43.684;10.484;2023-04-25T05:08:56;27.38;;;5.10;;
26488;SDS011;14169;43.684;10.484;2023-04-25T05:11:22;20.98;;;4.43;;
26488;SDS011;14169;43.684;10.484;2023-04-25T05:13:52;31.00;;;5.88;;
26488;SDS011;14169;43.684;10.484;2023-04-25T05:16:18;25.17;;;5.25;;
26488;SDS011;14169;43.684;10.484;2023-04-25T05:18:44;32.13;;;5.85;;
26488;SDS011;14169;43.684;10.484;2023-04-25T05:21:10;19.52;;;4.95;;
26488;SDS011;14169;43.684;10.484;2023-04-25T05:23:35;28.98;;;5.55;;
26488;SDS011;14169;43.684;10.484;2023-04-25T05:26:01;24.23;;;5.47;;
26488;SDS011;14169;43.684;10.484;2023-04-25T05:28:26;24.27;;;5.90;;
26488;SDS011;14169;43.684;10.484;2023-04-25T05:30:52;32.17;;;5.13;;
26488;SDS011;14169;43.684;10.484;2023-04-25T05:33:17;20.58;;;4.78;;
26488;SDS011;14169;43.684;10.484;2023-04-25T05:35:43;33.30;;;6.05;;
26488;SDS011;14169;43.684;10.484;2023-04-25T05:38:09;17.95;;;4.03;;
26488;SDS011;14169;43.684;10.484;2023-04-25T05:40:34;20.52;;;4.53;;
26488;SDS011;14169;43.684;10.484;2023-04-25T05:43:00;30.73;;;5.50;;
26488;SDS011;14169;43.684;10.484;2023-04-25T05:45:25;19.77;;;5.72;;
26488;SDS011;14169;43.684;10.484;2023-04-25T05:47:51;23.30;;;4.13;;
26488;SDS011;14169;43.684;10.484;2023-04-25T05:50:16;20.17;;;4.07;;
26488;SDS011;14169;43.684;10.484;2023-04-25T05:52:41;17.05;;;4.20;;
26488;SDS011;14169;43.684;10.484;2023-04-25T05:55:07;23.17;;;4.72;;
26488;SDS011;14169;43.684;10.484;2023-04-25T05:57:33;23.58;;;4.47;;
26488;SDS011;14169;43.684;10.484;2023-04-25T05:59:58;18.33;;;4.25;;
26488;SDS011;14169;43.684;10.484;2023-04-25T06:02:24;22.65;;;4.68;;
26488;SDS011;14169;43.684;10.484;2023-04-25T06:04:50;22.88;;;5.28;;
26488;SDS011;14169;43.684;10.484;2023-04-25T06:07:16;23.55;;;4.43;;
26488;SDS011;14169;43.684;10.484;2023-04-25T06:09:42;17.13;;;3.88;;
26488;SDS011;14169;43.684;10.484;2023-04-25T06:12:08;18.95;;;4.57;;
26488;SDS011;14169;43.684;10.484;2023-04-25T06:14:33;21.30;;;5.00;;
26488;SDS011;14169;43.684;10.484;2023-04-25T06:16:59;13.25;;;4.22;;
26488;SDS011;14169;43.684;10.484;2023-04-25T06:19:31;21.98;;;4.95;;
26488;SDS011;14169;43.684;10.484;2023-04-25T06:21:57;24.85;;;4.90;;
26488;SDS011;14169;43.684;10.484;2023-04-25T06:24:22;21.25;;;5.18;;
26488;SDS011;14169;43.684;10.484;2023-04-25T06:26:48;27.40;;;4.70;;
26488;SDS011;14169;43.684;10.484;2023-04-25T06:29:13;17.00;;;4.32;;
26488;SDS011;14169;43.684;10.484;2023-04-25T06:31:38;23.30;;;5.40;;
26488;SDS011;14169;43.684;10.484;2023-04-25T06:34:04;24.15;;;5.20;;
26488;SDS011;14169;43.684;10.484;2023-04-25T06:36:29;33.55;;;5.47;;
26488;SDS011;14169;43.684;10.484;2023-04-25T06:38:55;26.38;;;5.72;;
26488;SDS011;14169;43.684;10.484;2023-04-25T06:41:20;27.25;;;5.38;;
26488;SDS011;14169;43.684;10.484;2023-04-25T06:43:46;27.10;;;5.45;;
26488;SDS011;14169;43.684;10.484;2023-04-25T06:46:11;27.45;;;5.32;;
26488;SDS011;14169;43.684;10.484;2023-04-25T06:48:37;30.90;;;5.45;;
26488;SDS011;14169;43.684;10.484;2023-04-25T06:51:02;24.73;;;6.30;;
26488;SDS011;14169;43.684;10.484;2023-04-25T06:53:28;24.60;;;5.90;;
26488;SDS011;14169;43.684;10.484;2023-04-25T06:55:53;31.77;;;6.82;;
26488;SDS011;14169;43.684;10.484;2023-04-25T06:58:19;29.23;;;6.50;;
26488;SDS011;14169;43.684;10.484;2023-04-25T07:00:44;26.58;;;6.20;;
26488;SDS011;14169;43.684;10.484;2023-04-25T07:03:10;17.15;;;5.40;;
26488;SDS011;14169;43.684;10.484;2023-04-25T07:05:35;25.05;;;5.55;;
26488;SDS011;14169;43.684;10.484;2023-04-25T07:08:01;21.98;;;4.45;;
26488;SDS011;14169;43.684;10.484;2023-04-25T07:10:27;30.75;;;6.18;;
26488;SDS011;14169;43.684;10.484;2023-04-25T07:12:52;16.42;;;5.53;;
26488;SDS011;14169;43.684;10.484;2023-04-25T07:15:18;19.23;;;5.40;;
26488;SDS011;14169;43.684;10.484;2023-04-25T07:17:43;25.27;;;4.53;;
26488;SDS011;14169;43.684;10.484;2023-04-25T07:20:09;26.20;;;5.85;;
26488;SDS011;14169;43.684;10.484;2023-04-25T07:22:35;29.77;;;4.20;;
26488;SDS011;14169;43.684;10.484;2023-04-25T07:25:00;22.27;;;5.40;;
26488;SDS011;14169;43.684;10.484;2023-04-25T07:27:26;36.25;;;5.93;;
26488;SDS011;14169;43.684;10.484;2023-04-25T07:29:51;20.27;;;5.13;;
26488;SDS011;14169;43.684;10.484;2023-04-25T07:32:16;34.63;;;5.95;;
26488;SDS011;14169;43.684;10.484;2023-04-25T07:34:42;31.42;;;4.78;;
26488;SDS011;14169;43.684;10.484;2023-04-25T07:37:07;19.25;;;5.35;;
26488;SDS011;14169;43.684;10.484;2023-04-25T07:39:33;33.15;;;5.97;;
26488;SDS011;14169;43.684;10.484;2023-04-25T07:41:58;27.83;;;6.20;;
26488;SDS011;14169;43.684;10.484;2023-04-25T07:44:25;24.85;;;6.25;;
26488;SDS011;14169;43.684;10.484;2023-04-25T07:46:50;20.00;;;4.55;;
26488;SDS011;14169;43.684;10.484;2023-04-25T07:49:16;24.60;;;4.45;;
26488;SDS011;14169;43.684;10.484;2023-04-25T07:51:41;27.15;;;6.25;;
26488;SDS011;14169;43.684;10.484;2023-04-25T07:54:09;22.20;;;4.95;;
26488;SDS011;14169;43.684;10.484;2023-04-25T07:56:34;16.35;;;4.15;;
26488;SDS011;14169;43.684;10.484;2023-04-25T07:59:00;28.92;;;6.45;;
26488;SDS011;14169;43.684;10.484;2023-04-25T08:01:25;19.80;;;4.38;;
26488;SDS011;14169;43.684;10.484;2023-04-25T08:03:52;23.70;;;5.53;;
26488;SDS011;14169;43.684;10.484;2023-04-25T08:06:17;31.17;;;5.35;;
26488;SDS011;14169;43.684;10.484;2023-04-25T08:08:43;22.58;;;5.25;;
26488;SDS011;14169;43.684;10.484;2023-04-25T08:11:08;18.33;;;5.03;;
26488;SDS011;14169;43.684;10.484;2023-04-25T08:13:34;21.67;;;4.85;;
26488;SDS011;14169;43.684;10.484;2023-04-25T08:15:59;25.13;;;4.75;;
26488;SDS011;14169;43.684;10.484;2023-04-25T08:18:25;21.42;;;4.93;;
26488;SDS011;14169;43.684;10.484;2023-04-25T08:20:50;23.08;;;4.35;;
26488;SDS011;14169;43.684;10.484;2023-04-25T08:23:15;22.98;;;4.28;;
26488;SDS011;14169;43.684;10.484;2023-04-25T08:25:41;20.10;;;5.45;;
26488;SDS011;14169;43.684;10.484;2023-04-25T08:28:06;25.52;;;5.22;;
26488;SDS011;14169;43.684;10.484;2023-04-25T08:30:32;21.38;;;3.95;;
26488;SDS011;14169;43.684;10.484;2023-04-25T08:32:57;21.40;;;4.15;;
26488;SDS011;14169;43.684;10.484;2023-04-25T08:35:22;28.30;;;6.13;;
26488;SDS011;14169;43.684;10.484;2023-04-25T08:37:48;20.80;;;5.40;;
26488;SDS011;14169;43.684;10.484;2023-04-25T08:40:14;14.20;;;3.97;;
26488;SDS011;14169;43.684;10.484;2023-04-25T08:42:41;27.58;;;4.78;;
26488;SDS011;14169;43.684;10.484;2023-04-25T08:45:08;16.88;;;5.68;;
26488;SDS011;14169;43.684;10.484;2023-04-25T08:47:35;16.40;;;3.25;;
26488;SDS011;14169;43.684;10.484;2023-04-25T08:50:03;22.50;;;3.95;;
26488;SDS011;14169;43.684;10.484;2023-04-25T08:52:32;33.80;;;6.03;;
26488;SDS011;14169;43.684;10.484;2023-04-25T08:55:08;17.02;;;4.15;;
26488;SDS011;14169;43.684;10.484;2023-04-25T08:57:34;24.08;;;5.05;;
26488;SDS011;14169;43.684;10.484;2023-04-25T09:00:00;21.95;;;4.80;;
26488;SDS011;14169;43.684;10.484;2023-04-25T09:02:26;16.88;;;3.92;;
26488;SDS011;14169;43.684;10.484;2023-04-25T09:04:52;16.63;;;3.65;;
26488;SDS011;14169;43.684;10.484;2023-04-25T09:07:19;28.00;;;4.53;;
26488;SDS011;14169;43.684;10.484;2023-04-25T09:09:46;17.92;;;4.10;;
26488;SDS011;14169;43.684;10.484;2023-04-25T09:12:11;29.98;;;5.05;;
26488;SDS011;14169;43.684;10.484;2023-04-25T09:14:37;19.17;;;4.43;;
26488;SDS011;14169;43.684;10.484;2023-04-25T09:17:04;33.28;;;3.70;;
26488;SDS011;14169;43.684;10.484;2023-04-25T09:19:33;19.52;;;3.83;;
26488;SDS011;14169;43.684;10.484;2023-04-25T09:22:04;19.50;;;4.07;;
26488;SDS011;14169;43.684;10.484;2023-04-25T09:24:37;16.27;;;4.28;;
26488;SDS011;14169;43.684;10.484;2023-04-25T09:27:08;19.02;;;3.17;;
26488;SDS011;14169;43.684;10.484;2023-04-25T09:29:36;20.50;;;3.55;;
26488;SDS011;14169;43.684;10.484;2023-04-25T09:32:22;18.92;;;3.42;;
26488;SDS011;14169;43.684;10.484;2023-04-25T09:37:22;19.70;;;3.92;;
26488;SDS011;14169;43.684;10.484;2023-04-25T09:39:49;16.30;;;3.40;;
26488;SDS011;14169;43.684;10.484;2023-04-25T09:42:21;15.93;;;4.90;;
26488;SDS011;14169;43.684;10.484;2023-04-25T09:44:52;23.67;;;4.00;;
26488;SDS011;14169;43.684;10.484;2023-04-25T09:47:18;15.95;;;3.78;;
26488;SDS011;14169;43.684;10.484;2023-04-25T09:49:46;15.82;;;3.60;;
26488;SDS011;14169;43.684;10.484;2023-04-25T09:52:18;24.30;;;3.92;;
26488;SDS011;14169;43.684;10.484;2023-04-25T09:54:46;14.57;;;4.10;;
26488;SDS011;14169;43.684;10.484;2023-04-25T09:57:14;13.02;;;3.67;;
26488;SDS011;14169;43.684;10.484;2023-04-25T09:59:45;14.43;;;4.32;;
26488;SDS011;14169;43.684;10.484;2023-04-25T10:02:11;15.82;;;4.82;;
26488;SDS011;14169;43.684;10.484;2023-04-25T10:04:37;25.27;;;5.15;;
26488;SDS011;14169;43.684;10.484;2023-04-25T10:07:06;17.60;;;3.33;;
26488;SDS011;14169;43.684;10.484;2023-04-25T10:09:33;22.92;;;3.33;;
26488;SDS011;14169;43.684;10.484;2023-04-25T10:12:02;17.55;;;2.85;;
26488;SDS011;14169;43.684;10.484;2023-04-25T10:14:29;12.07;;;2.72;;
26488;SDS011;14169;43.684;10.484;2023-04-25T10:16:57;9.43;;;3.13;;
26488;SDS011;14169;43.684;10.484;2023-04-25T10:19:23;13.88;;;4.00;;
26488;SDS011;14169;43.684;10.484;2023-04-25T10:21:51;20.92;;;4.18;;
26488;SDS011;14169;43.684;10.484;2023-04-25T10:24:36;15.15;;;4.10;;
26488;SDS011;14169;43.684;10.484;2023-04-25T10:27:04;16.00;;;3.63;;
26488;SDS011;14169;43.684;10.484;2023-04-25T10:29:29;13.30;;;3.83;;
26488;SDS011;14169;43.684;10.484;2023-04-25T10:31:55;21.80;;;5.45;;
26488;SDS011;14169;43.684;10.484;2023-04-25T10:34:40;14.57;;;3.95;;
26488;SDS011;14169;43.684;10.484;2023-04-25T10:37:10;20.85;;;4.80;;
26488;SDS011;14169;43.684;10.484;2023-04-25T10:39:37;19.27;;;4.45;;
26488;SDS011;14169;43.684;10.484;2023-04-25T10:42:04;19.33;;;5.00;;
26488;SDS011;14169;43.684;10.484;2023-04-25T10:44:29;15.40;;;4.03;;
26488;SDS011;14169;43.684;10.484;2023-04-25T10:46:56;16.38;;;4.68;;
26488;SDS011;14169;43.684;10.484;2023-04-25T10:52:13;26.52;;;3.85;;
26488;SDS011;14169;43.684;10.484;2023-04-25T10:54:53;16.88;;;3.90;;
26488;SDS011;14169;43.684;10.484;2023-04-25T10:57:27;16.13;;;3.47;;
26488;SDS011;14169;43.684;10.484;2023-04-25T10:59:57;20.08;;;3.63;;
26488;SDS011;14169;43.684;10.484;2023-04-25T11:02:28;15.23;;;4.25;;
26488;SDS011;14169;43.684;10.484;2023-04-25T11:04:54;20.73;;;4.35;;
26488;SDS011;14169;43.684;10.484;2023-04-25T11:07:28;23.20;;;4.13;;
26488;SDS011;14169;43.684;10.484;2023-04-25T11:09:56;21.25;;;5.72;;
26488;SDS011;14169;43.684;10.484;2023-04-25T11:12:21;20.92;;;4.47;;
26488;SDS011;14169;43.684;10.484;2023-04-25T11:14:49;19.48;;;5.57;;
26488;SDS011;14169;43.684;10.484;2023-04-25T11:17:15;18.40;;;4.55;;
26488;SDS011;14169;43.684;10.484;2023-04-25T11:19:40;12.35;;;4.55;;
26488;SDS011;14169;43.684;10.484;2023-04-25T11:22:05;13.57;;;3.60;;
26488;SDS011;14169;43.684;10.484;2023-04-25T11:24:33;16.58;;;4.05;;
26488;SDS011;14169;43.684;10.484;2023-04-25T11:27:00;34.25;;;4.60;;
26488;SDS011;14169;43.684;10.484;2023-04-25T11:29:29;15.93;;;5.00;;
26488;SDS011;14169;43.684;10.484;2023-04-25T11:31:56;13.23;;;2.95;;
26488;SDS011;14169;43.684;10.484;2023-04-25T11:34:23;14.52;;;3.40;;
26488;SDS011;14169;43.684;10.484;2023-04-25T11:36:50;17.10;;;3.85;;
26488;SDS011;14169;43.684;10.484;2023-04-25T11:39:15;17.80;;;3.08;;
26488;SDS011;14169;43.684;10.484;2023-04-25T11:41:41;14.15;;;4.32;;
26488;SDS011;14169;43.684;10.484;2023-04-25T11:44:07;19.23;;;3.92;;
26488;SDS011;14169;43.684;10.484;2023-04-25T11:46:35;14.07;;;3.20;;
26488;SDS011;14169;43.684;10.484;2023-04-25T11:49:01;9.05;;;2.17;;
26488;SDS011;14169;43.684;10.484;2023-04-25T11:51:27;11.48;;;2.70;;
26488;SDS011;14169;43.684;10.484;2023-04-25T11:53:53;12.45;;;2.88;;
26488;SDS011;14169;43.684;10.484;2023-04-25T11:56:18;11.02;;;3.55;;
26488;SDS011;14169;43.684;10.484;2023-04-25T11:58:55;14.23;;;2.40;;
26488;SDS011;14169;43.684;10.484;2023-04-25T12:01:28;15.27;;;3.10;;
26488;SDS011;14169;43.684;10.484;2023-04-25T12:03:58;8.25;;;2.80;;
26488;SDS011;14169;43.684;10.484;2023-04-25T12:06:27;18.25;;;3.80;;
26488;SDS011;14169;43.684;10.484;2023-04-25T12:09:03;16.92;;;3.17;;
26488;SDS011;14169;43.684;10.484;2023-04-25T12:11:30;10.85;;;2.30;;
26488;SDS011;14169;43.684;10.484;2023-04-25T12:14:01;17.90;;;2.47;;
26488;SDS011;14169;43.684;10.484;2023-04-25T12:16:44;14.02;;;3.30;;
26488;SDS011;14169;43.684;10.484;2023-04-25T12:19:15;12.27;;;2.67;;
26488;SDS011;14169;43.684;10.484;2023-04-25T12:21:41;12.45;;;3.65;;
26488;SDS011;14169;43.684;10.484;2023-04-25T12:24:11;15.68;;;3.22;;
26488;SDS011;14169;43.684;10.484;2023-04-25T12:26:49;17.40;;;3.83;;
26488;SDS011;14169;43.684;10.484;2023-04-25T12:29:25;12.15;;;2.85;;
26488;SDS011;14169;43.684;10.484;2023-04-25T12:31:52;16.73;;;3.30;;
26488;SDS011;14169;43.684;10.484;2023-04-25T12:34:19;9.15;;;2.33;;
26488;SDS011;14169;43.684;10.484;2023-04-25T12:36:46;16.88;;;3.05;;
26488;SDS011;14169;43.684;10.484;2023-04-25T12:39:15;14.52;;;2.83;;
26488;SDS011;14169;43.684;10.484;2023-04-25T12:41:44;11.65;;;2.80;;
26488;SDS011;14169;43.684;10.484;2023-04-25T12:44:10;16.67;;;3.65;;
26488;SDS011;14169;43.684;10.484;2023-04-25T12:46:36;19.27;;;3.85;;
26488;SDS011;14169;43.684;10.484;2023-04-25T12:49:03;9.65;;;3.33;;
26488;SDS011;14169;43.684;10.484;2023-04-25T12:51:29;13.68;;;4.32;;
26488;SDS011;14169;43.684;10.484;2023-04-25T12:53:55;10.80;;;2.10;;
26488;SDS011;14169;43.684;10.484;2023-04-25T12:56:21;14.45;;;3.45;;
26488;SDS011;14169;43.684;10.484;2023-04-25T12:58:46;10.65;;;2.55;;
26488;SDS011;14169;43.684;10.484;2023-04-25T13:01:13;9.75;;;3.17;;
26488;SDS011;14169;43.684;10.484;2023-04-25T13:03:39;11.30;;;2.50;;
26488;SDS011;14169;43.684;10.484;2023-04-25T13:06:05;14.98;;;2.50;;
26488;SDS011;14169;43.684;10.484;2023-04-25T13:08:31;13.02;;;2.67;;
26488;SDS011;14169;43.684;10.484;2023-04-25T13:10:56;10.63;;;3.25;;
26488;SDS011;14169;43.684;10.484;2023-04-25T13:13:22;12.30;;;3.22;;
26488;SDS011;14169;43.684;10.484;2023-04-25T13:15:47;12.55;;;3.22;;
26488;SDS011;14169;43.684;10.484;2023-04-25T13:18:13;11.23;;;3.58;;
26488;SDS011;14169;43.684;10.484;2023-04-25T13:20:38;9.57;;;2.50;;
26488;SDS011;14169;43.684;10.484;2023-04-25T13:23:03;10.73;;;2.10;;
26488;SDS011;14169;43.684;10.484;2023-04-25T13:25:29;12.68;;;2.80;;
26488;SDS011;14169;43.684;10.484;2023-04-25T13:27:55;8.23;;;2.13;;
26488;SDS011;14169;43.684;10.484;2023-04-25T13:30:20;11.55;;;2.83;;
26488;SDS011;14169;43.684;10.484;2023-04-25T13:32:46;12.32;;;3.03;;
26488;SDS011;14169;43.684;10.484;2023-04-25T13:35:12;9.27;;;2.33;;
26488;SDS011;14169;43.684;10.484;2023-04-25T13:37:38;8.88;;;2.47;;
26488;SDS011;14169;43.684;10.484;2023-04-25T13:40:06;8.65;;;3.13;;
26488;SDS011;14169;43.684;10.484;2023-04-25T13:42:34;19.02;;;3.70;;
26488;SDS011;14169;43.684;10.484;2023-04-25T13:45:03;11.68;;;2.40;;
26488;SDS011;14169;43.684;10.484;2023-04-25T13:47:29;11.00;;;2.25;;
26488;SDS011;14169;43.684;10.484;2023-04-25T13:49:55;11.40;;;2.42;;
26488;SDS011;14169;43.684;10.484;2023-04-25T13:52:21;8.77;;;2.58;;
26488;SDS011;14169;43.684;10.484;2023-04-25T13:54:50;9.25;;;1.83;;
26488;SDS011;14169;43.684;10.484;2023-04-25T13:57:16;10.40;;;2.22;;
26488;SDS011;14169;43.684;10.484;2023-04-25T13:59:42;7.80;;;2.05;;
26488;SDS011;14169;43.684;10.484;2023-04-25T14:02:07;7.25;;;2.20;;
26488;SDS011;14169;43.684;10.484;2023-04-25T14:04:33;5.85;;;2.20;;
26488;SDS011;14169;43.684;10.484;2023-04-25T14:06:58;7.28;;;2.22;;
26488;SDS011;14169;43.684;10.484;2023-04-25T14:09:24;9.40;;;2.03;;
26488;SDS011;14169;43.684;10.484;2023-04-25T14:11:53;5.40;;;1.88;;
26488;SDS011;14169;43.684;10.484;2023-04-25T14:14:20;4.78;;;1.60;;
26488;SDS011;14169;43.684;10.484;2023-04-25T14:16:46;9.60;;;2.92;;
26488;SDS011;14169;43.684;10.484;2023-04-25T14:19:16;8.27;;;2.10;;
26488;SDS011;14169;43.684;10.484;2023-04-25T14:21:42;10.05;;;1.92;;
26488;SDS011;14169;43.684;10.484;2023-04-25T14:24:08;8.80;;;1.95;;
26488;SDS011;14169;43.684;10.484;2023-04-25T14:26:35;8.05;;;2.42;;